Time;durP1;ratioP1;P1;durP2;ratioP2;P2;SDS_P1;SDS_P2;PMS_P1;PMS_P2;Temp;Humidity;BMP_temperature;BMP_pressure;BME280_temperature;BME280_humidity;BME280_pressure;Samples;Min_cycle;Max_cycle;Signal;HPM_P1;HPM_P2
2021/04/27 00:02:17;;;;;;;;;;;;;;;;;;5060984;28;1190;-59
2021/04/27 00:04:43;;;;;;;;;;;;;;;;;;5028854;28;835;-59
2021/04/27 00:07:08;;;;;;;;;;;;;;;;;;5029064;28;851;-59
2021/04/27 00:09:34;;;;;;;;;;;;;;;;;;5028532;28;946;-59
2021/04/27 00:11:59;;;;;;;;;;;;;;;;;;5027935;28;1384;-59
2021/04/27 00:14:25;;;;;;;;;;;;;;;;;;5028510;28;1438;-59
2021/04/27 00:16:50;;;;;;;;;;;;;;;;;;5028996;28;1882;-59
2021/04/27 00:19:15;;;;;;;;;;;;;;;;;;5028489;28;919;-59
2021/04/27 00:21:41;;;;;;;;;;;;;;;;;;5028103;28;895;-59
2021/04/27 00:24:06;;;;;;;;;;;;;;;;;;5028459;28;899;-59
2021/04/27 00:26:32;;;;;;;;;;;;;;;;;;5028158;28;946;-59
2021/04/27 00:28:58;;;;;;;;;;;;;;;;;;5029970;28;1046;-59
2021/04/27 00:31:23;;;;;;;;;;;;;;;;;;5028844;28;803;-59
2021/04/27 00:33:49;;;;;;;;;;;;;;;;;;5028318;28;816;-60
2021/04/27 00:36:14;;;;;;;;;;;;;;;;;;5029702;28;742;-60
2021/04/27 00:38:39;;;;;;;;;;;;;;;;;;5028292;28;1969;-60
2021/04/27 00:41:05;;;;;;;;;;;;;;;;;;5028281;28;942;-60
2021/04/27 00:43:30;;;;;;;;;;;;;;;;;;5031950;28;1238;-62
2021/04/27 00:45:56;;;;;;;;;;;;;;;;;;5048460;28;834;-60
2021/04/27 00:48:21;;;;;;;;;;;;;;;;;;5048179;28;811;-60
2021/04/27 00:50:47;;;;;;;;;;;;;;;;;;5047913;28;957;-59
2021/04/27 00:53:12;;;;;;;;;;;;;;;;;;5047405;28;866;-63
2021/04/27 00:55:38;;;;;;;;;;;;;;;;;;5047268;28;847;-60
2021/04/27 00:58:04;;;;;;;;;;;;;;;;;;5048667;28;1902;-61
2021/04/27 01:00:31;;;;;;;;;;;;;;;;;;5047263;28;974;-60
2021/04/27 01:02:57;;;;;;;;;;;;;;;;;;5047855;28;799;-59
2021/04/27 01:05:31;;;;;;;;;;;;;;;;;;5047060;28;1588;-60
2021/04/27 01:07:59;;;;;;;;;;;;;;;;;;5047953;28;819;-60
2021/04/27 01:10:33;;;;;;;;;;;;;;;;;;5043584;28;1110;-59
2021/04/27 01:13:02;;;;;;;;;;;;;;;;;;5035009;28;1233;-60
2021/04/27 01:15:28;;;;;;;;;;;;;;;;;;5027965;28;910;-59
2021/04/27 01:17:55;;;;;;;;;;;;;;;;;;5027854;28;1961;-61
2021/04/27 01:20:20;;;;;;;;;;;;;;;;;;5027864;28;874;-59
2021/04/27 01:22:58;;;;;;;;;;;;;;;;;;5026362;28;1254;-59
2021/04/27 01:25:33;;;;;;;;;;;;;;;;;;5027724;28;839;-59
2021/04/27 01:27:59;;;;;;;;;;;;;;;;;;5027890;28;863;-60
2021/04/27 01:30:25;;;;;;;;;;;;;;;;;;5027107;28;795;-61
2021/04/27 01:32:52;;;;;;;;;;;;;;;;;;5027523;28;895;-60
2021/04/27 01:35:18;;;;;;;;;;;;;;;;;;5027238;28;910;-60
2021/04/27 01:37:43;;;;;;;;;;;;;;;;;;5029196;28;1961;-59
2021/04/27 01:40:09;;;;;;;;;;;;;;;;;;5027321;28;870;-60
2021/04/27 01:42:35;;;;;;;;;;;;;;;;;;5026220;28;1454;-59
2021/04/27 01:45:02;;;;;;;;;;;;;;;;;;5044324;28;1134;-60
2021/04/27 01:47:28;;;;;;;;;;;;;;;;;;5045902;28;1488;-59
2021/04/27 01:49:53;;;;;;;;;;;;;;;;;;5047154;28;811;-59
2021/04/27 01:52:19;;;;;;;;;;;;;;;;;;5046605;28;894;-59
2021/04/27 01:54:44;;;;;;;;;;;;;;;;;;5046875;28;827;-59
2021/04/27 01:57:10;;;;;;;;;;;;;;;;;;5046668;28;1930;-59
2021/04/27 01:59:35;;;;;;;;;;;;;;;;;;5046644;28;1256;-62
2021/04/27 02:02:01;;;;;;;;;;;;;;;;;;5047239;28;862;-59
2021/04/27 02:04:27;;;;;;;;;;;;;;;;;;5046423;28;862;-59
2021/04/27 02:06:53;;;;;;;;;;;;;;;;;;5046815;28;930;-60
2021/04/27 02:09:20;;;;;;;;;;;;;;;;;;5028689;28;1464;-59
2021/04/27 02:11:48;;;;;;;;;;;;;;;;;;5019661;28;2491;-59
2021/04/27 02:14:14;;;;;;;;;;;;;;;;;;5018084;28;795;-60
2021/04/27 02:16:42;;;;;;;;;;;;;;;;;;5006888;28;1897;-59
2021/04/27 02:19:08;;;;;;;;;;;;;;;;;;5006591;28;819;-59
2021/04/27 02:21:34;;;;;;;;;;;;;;;;;;5006901;28;835;-60
2021/04/27 02:24:00;;;;;;;;;;;;;;;;;;5007633;28;807;-59
2021/04/27 02:26:25;;;;;;;;;;;;;;;;;;5006352;28;883;-59
2021/04/27 02:28:51;;;;;;;;;;;;;;;;;;5005114;28;1188;-59
2021/04/27 02:31:17;;;;;;;;;;;;;;;;;;5012549;28;2564;-59
2021/04/27 02:33:43;;;;;;;;;;;;;;;;;;5025971;28;808;-59
2021/04/27 02:36:09;;;;;;;;;;;;;;;;;;5006317;28;804;-59
2021/04/27 02:38:34;;;;;;;;;;;;;;;;;;5039516;28;1898;-59
2021/04/27 02:41:00;;;;;;;;;;;;;;;;;;5010098;28;1191;-59
2021/04/27 02:43:26;;;;;;;;;;;;;;;;;;5061883;28;1191;-59
2021/04/27 02:45:52;;;;;;;;;;;;;;;;;;5044982;28;954;-59
2021/04/27 02:48:19;;;;;;;;;;;;;;;;;;5046177;28;851;-59
2021/04/27 02:50:46;;;;;;;;;;;;;;;;;;5046052;28;866;-60
2021/04/27 02:53:12;;;;;;;;;;;;;;;;;;5045651;28;934;-59
2021/04/27 02:55:37;;;;;;;;;;;;;;;;;;5044637;28;857;-60
2021/04/27 02:58:03;;;;;;;;;;;;;;;;;;5046341;28;1902;-62
2021/04/27 03:00:29;;;;;;;;;;;;;;;;;;5046576;28;862;-59
2021/04/27 03:02:54;;;;;;;;;;;;;;;;;;5045844;28;918;-59
2021/04/27 03:05:20;;;;;;;;;;;;;;;;;;5045336;28;878;-59
2021/04/27 03:07:45;;;;;;;;;;;;;;;;;;5044938;28;901;-59
2021/04/27 03:10:11;;;;;;;;;;;;;;;;;;5045459;28;890;-59
2021/04/27 03:12:36;;;;;;;;;;;;;;;;;;5027358;28;1344;-59
2021/04/27 03:15:04;;;;;;;;;;;;;;;;;;5029104;28;1403;-59
2021/04/27 03:17:29;;;;;;;;;;;;;;;;;;5028087;28;1973;-59
2021/04/27 03:19:54;;;;;;;;;;;;;;;;;;5030192;28;843;-59
2021/04/27 03:22:20;;;;;;;;;;;;;;;;;;5029704;28;862;-59
2021/04/27 03:24:45;;;;;;;;;;;;;;;;;;5029792;28;796;-60
2021/04/27 03:27:10;;;;;;;;;;;;;;;;;;5029683;28;887;-60
2021/04/27 03:29:36;;;;;;;;;;;;;;;;;;5029899;28;866;-60
2021/04/27 03:32:01;;;;;;;;;;;;;;;;;;5030138;28;819;-59
2021/04/27 03:34:27;;;;;;;;;;;;;;;;;;5028059;28;1318;-59
2021/04/27 03:36:52;;;;;;;;;;;;;;;;;;5030047;28;1894;-61
2021/04/27 03:39:17;;;;;;;;;;;;;;;;;;5028784;28;938;-59
2021/04/27 03:41:43;;;;;;;;;;;;;;;;;;5027984;28;1396;-59
2021/04/27 03:44:08;;;;;;;;;;;;;;;;;;5038451;28;1095;-59
2021/04/27 03:46:34;;;;;;;;;;;;;;;;;;5050002;28;841;-59
2021/04/27 03:48:59;;;;;;;;;;;;;;;;;;5049799;28;796;-61
2021/04/27 03:51:25;;;;;;;;;;;;;;;;;;5049025;28;838;-59
2021/04/27 03:53:50;;;;;;;;;;;;;;;;;;5048497;28;815;-60
2021/04/27 03:56:16;;;;;;;;;;;;;;;;;;5048855;28;822;-60
2021/04/27 03:58:41;;;;;;;;;;;;;;;;;;5048503;28;1983;-60
2021/04/27 04:01:07;;;;;;;;;;;;;;;;;;5048945;28;842;-60
2021/04/27 04:03:32;;;;;;;;;;;;;;;;;;5049826;28;803;-61
2021/04/27 04:05:58;;;;;;;;;;;;;;;;;;5048935;28;842;-60
2021/04/27 04:08:23;;;;;;;;;;;;;;;;;;5047850;28;842;-60
2021/04/27 04:10:48;;;;;;;;;;;;;;;;;;5040417;28;1466;-60
2021/04/27 04:13:14;;;;;;;;;;;;;;;;;;5028762;28;792;-59
2021/04/27 04:15:39;;;;;;;;;;;;;;;;;;5028915;28;898;-60
2021/04/27 04:18:05;;;;;;;;;;;;;;;;;;5029219;28;1898;-64
2021/04/27 04:20:31;;;;;;;;;;;;;;;;;;5029482;28;957;-59
2021/04/27 04:22:56;;;;;;;;;;;;;;;;;;5028036;28;803;-59
2021/04/27 04:25:21;;;;;;;;;;;;;;;;;;5028392;28;877;-60
2021/04/27 04:27:47;;;;;;;;;;;;;;;;;;5027850;28;1012;-59
2021/04/27 04:30:14;;;;;;;;;;;;;;;;;;5027459;28;846;-59
2021/04/27 04:32:40;;;;;;;;;;;;;;;;;;5028787;28;1124;-59
2021/04/27 04:35:06;;;;;;;;;;;;;;;;;;5028596;28;811;-60
2021/04/27 04:37:31;;;;;;;;;;;;;;;;;;5028467;28;1894;-60
2021/04/27 04:39:57;;;;;;;;;;;;;;;;;;5062268;28;1357;-60
2021/04/27 04:42:22;;;;;;;;;;;;;;;;;;5028179;28;883;-59
2021/04/27 04:44:47;;;;;;;;;;;;;;;;;;5043427;28;1075;-61
2021/04/27 04:47:13;;;;;;;;;;;;;;;;;;5047524;28;804;-59
2021/04/27 04:49:38;;;;;;;;;;;;;;;;;;5047991;28;843;-59
2021/04/27 04:52:03;;;;;;;;;;;;;;;;;;5047792;28;886;-59
2021/04/27 04:54:29;;;;;;;;;;;;;;;;;;5047845;28;814;-59
2021/04/27 04:56:54;;;;;;;;;;;;;;;;;;5048106;28;2003;-59
2021/04/27 04:59:20;;;;;;;;;;;;;;;;;;5048266;28;882;-59
2021/04/27 05:01:45;;;;;;;;;;;;;;;;;;5046323;28;934;-62
2021/04/27 05:04:10;;;;;;;;;;;;;;;;;;5047775;28;827;-59
2021/04/27 05:06:39;;;;;;;;;;;;;;;;;;5043384;28;1153;-59
2021/04/27 05:09:06;;;;;;;;;;;;;;;;;;5047477;28;831;-61
2021/04/27 05:11:32;;;;;;;;;;;;;;;;;;5030672;28;1336;-59
2021/04/27 05:13:57;;;;;;;;;;;;;;;;;;5027438;28;835;-60
2021/04/27 05:16:23;;;;;;;;;;;;;;;;;;5027942;28;866;-59
2021/04/27 05:18:48;;;;;;;;;;;;;;;;;;5027974;28;1979;-59
2021/04/27 05:21:14;;;;;;;;;;;;;;;;;;5026765;28;808;-59
2021/04/27 05:23:39;;;;;;;;;;;;;;;;;;5026996;28;1187;-59
2021/04/27 05:26:05;;;;;;;;;;;;;;;;;;5027716;28;1144;-60
2021/04/27 05:28:30;;;;;;;;;;;;;;;;;;5028363;28;800;-59
2021/04/27 05:30:56;;;;;;;;;;;;;;;;;;5026266;28;1686;-61
2021/04/27 05:33:21;;;;;;;;;;;;;;;;;;5027940;28;1620;-59
2021/04/27 05:35:46;;;;;;;;;;;;;;;;;;5027340;28;1715;-60
2021/04/27 05:38:12;;;;;;;;;;;;;;;;;;5026721;28;1898;-60
2021/04/27 05:40:38;;;;;;;;;;;;;;;;;;5026205;28;1349;-59
2021/04/27 05:43:04;;;;;;;;;;;;;;;;;;5028833;28;1565;-59
2021/04/27 05:45:29;;;;;;;;;;;;;;;;;;5046952;28;819;-60
2021/04/27 05:47:55;;;;;;;;;;;;;;;;;;5033069;28;1812;-59
2021/04/27 05:50:20;;;;;;;;;;;;;;;;;;5026469;28;799;-60
2021/04/27 05:52:46;;;;;;;;;;;;;;;;;;5026273;28;1037;-61
2021/04/27 05:55:11;;;;;;;;;;;;;;;;;;5027025;28;1254;-60
2021/04/27 05:57:37;;;;;;;;;;;;;;;;;;5025378;28;1906;-61
2021/04/27 06:00:03;;;;;;;;;;;;;;;;;;5028033;28;788;-59
2021/04/27 06:02:29;;;;;;;;;;;;;;;;;;5026554;28;1029;-60
2021/04/27 06:04:54;;;;;;;;;;;;;;;;;;5026509;28;1155;-58
2021/04/27 06:07:19;;;;;;;;;;;;;;;;;;5025593;28;1155;-62
2021/04/27 06:09:45;;;;;;;;;;;;;;;;;;5026112;28;1148;-60
2021/04/27 06:12:10;;;;;;;;;;;;;;;;;;5026359;28;1089;-60
2021/04/27 06:14:36;;;;;;;;;;;;;;;;;;5026240;28;862;-60
2021/04/27 06:17:01;;;;;;;;;;;;;;;;;;5026962;28;1955;-60
2021/04/27 06:19:26;;;;;;;;;;;;;;;;;;5026530;28;925;-61
2021/04/27 06:21:52;;;;;;;;;;;;;;;;;;5026341;28;838;-60
2021/04/27 06:24:17;;;;;;;;;;;;;;;;;;5029331;28;1198;-61
2021/04/27 06:26:42;;;;;;;;;;;;;;;;;;5024687;28;942;-61
2021/04/27 06:29:08;;;;;;;;;;;;;;;;;;5027224;28;1175;-60
2021/04/27 06:31:33;;;;;;;;;;;;;;;;;;5028283;28;1055;-60
2021/04/27 06:33:59;;;;;;;;;;;;;;;;;;5027190;28;1147;-60
2021/04/27 06:36:24;;;;;;;;;;;;;;;;;;5027826;28;1281;-60
2021/04/27 06:38:50;;;;;;;;;;;;;;;;;;5026772;28;1963;-61
2021/04/27 06:41:17;;;;;;;;;;;;;;;;;;5026241;28;871;-60
2021/04/27 06:43:42;;;;;;;;;;;;;;;;;;5032190;28;1094;-60
2021/04/27 06:46:08;;;;;;;;;;;;;;;;;;5046051;28;858;-61
2021/04/27 06:48:34;;;;;;;;;;;;;;;;;;5047010;28;855;-59
2021/04/27 06:51:00;;;;;;;;;;;;;;;;;;5046086;28;902;-60
2021/04/27 06:53:25;;;;;;;;;;;;;;;;;;5046071;28;803;-60
2021/04/27 06:55:50;;;;;;;;;;;;;;;;;;5032784;28;1036;-60
2021/04/27 06:58:16;;;;;;;;;;;;;;;;;;5027043;28;1914;-61
2021/04/27 07:00:42;;;;;;;;;;;;;;;;;;5027118;28;1174;-60
2021/04/27 07:03:07;;;;;;;;;;;;;;;;;;5027686;28;1239;-60
2021/04/27 07:05:33;;;;;;;;;;;;;;;;;;5026697;28;854;-59
2021/04/27 07:07:58;;;;;;;;;;;;;;;;;;5025923;28;1233;-63
2021/04/27 07:10:24;;;;;;;;;;;;;;;;;;5025311;28;1353;-60
2021/04/27 07:12:50;;;;;;;;;;;;;;;;;;5022115;28;1156;-64
2021/04/27 07:15:16;;;;;;;;;;;;;;;;;;5015592;28;1516;-61
2021/04/27 07:17:41;;;;;;;;;;;;;;;;;;5026084;28;1886;-60
2021/04/27 07:20:07;;;;;;;;;;;;;;;;;;5023837;28;1273;-61
2021/04/27 07:22:32;;;;;;;;;;;;;;;;;;5026100;28;1068;-59
2021/04/27 07:24:58;;;;;;;;;;;;;;;;;;5025216;28;1368;-60
2021/04/27 07:27:23;;;;;;;;;;;;;;;;;;5025559;28;832;-60
2021/04/27 07:29:49;;;;;;;;;;;;;;;;;;5023695;28;1363;-60
2021/04/27 07:32:15;;;;;;;;;;;;;;;;;;5023179;28;1364;-59
2021/04/27 07:34:40;;;;;;;;;;;;;;;;;;5025478;28;1293;-59
2021/04/27 07:37:06;;;;;;;;;;;;;;;;;;5024903;28;1898;-61
2021/04/27 07:39:32;;;;;;;;;;;;;;;;;;5024017;28;1474;-61
2021/04/27 07:41:57;;;;;;;;;;;;;;;;;;5024154;28;1804;-60
2021/04/27 07:44:23;;;;;;;;;;;;;;;;;;5027217;28;1406;-60
2021/04/27 07:46:48;;;;;;;;;;;;;;;;;;5024399;28;1331;-61
2021/04/27 07:49:13;;;;;;;;;;;;;;;;;;5024758;28;1520;-61
2021/04/27 07:51:39;;;;;;;;;;;;;;;;;;5025120;28;1164;-61
2021/04/27 07:54:04;;;;;;;;;;;;;;;;;;5024806;28;1193;-60
2021/04/27 07:56:30;;;;;;;;;;;;;;;;;;5022588;28;1368;-65
2021/04/27 07:58:57;;;;;;;;;;;;;;;;;;5023312;28;1909;-60
2021/04/27 08:01:25;;;;;;;;;;;;;;;;;;5022997;28;1351;-61
2021/04/27 08:03:51;;;;;;;;;;;;;;;;;;5023080;28;1433;-60
2021/04/27 08:06:16;;;;;;;;;;;;;;;;;;5023405;28;1529;-62
2021/04/27 08:08:43;;;;;;;;;;;;;;;;;;5027969;28;1044;-60
2021/04/27 08:11:09;;;;;;;;;;;;;;;;;;5026128;28;1409;-59
2021/04/27 08:13:34;;;;;;;;;;;;;;;;;;5027029;28;1715;-60
2021/04/27 08:16:00;;;;;;;;;;;;;;;;;;5028137;28;1469;-60
2021/04/27 08:18:26;;;;;;;;;;;;;;;;;;5026746;28;1999;-59
2021/04/27 08:20:51;;;;;;;;;;;;;;;;;;5027846;28;1435;-62
2021/04/27 08:23:17;;;;;;;;;;;;;;;;;;5027322;28;1354;-60
2021/04/27 08:25:42;;;;;;;;;;;;;;;;;;5026443;28;1254;-61
2021/04/27 08:28:07;;;;;;;;;;;;;;;;;;5026786;28;1315;-60
2021/04/27 08:30:33;;;;;;;;;;;;;;;;;;5028062;28;1448;-60
2021/04/27 08:32:59;;;;;;;;;;;;;;;;;;5027380;28;1411;-61
2021/04/27 08:35:25;;;;;;;;;;;;;;;;;;5028421;28;1226;-64
2021/04/27 08:37:51;;;;;;;;;;;;;;;;;;5026838;28;1955;-61
2021/04/27 08:40:16;;;;;;;;;;;;;;;;;;5028449;28;1364;-66
2021/04/27 08:42:46;;;;;;;;;;;;;;;;;;5026355;28;1221;-64
2021/04/27 08:45:11;;;;;;;;;;;;;;;;;;5024875;28;1279;-68
2021/04/27 08:47:37;;;;;;;;;;;;;;;;;;5027239;28;1353;-62
2021/04/27 08:50:04;;;;;;;;;;;;;;;;;;5026549;28;1521;-65
2021/04/27 08:52:29;;;;;;;;;;;;;;;;;;5025797;28;1708;-65
2021/04/27 08:54:55;;;;;;;;;;;;;;;;;;5026544;28;1243;-65
2021/04/27 08:57:21;;;;;;;;;;;;;;;;;;5026665;28;1930;-62
2021/04/27 08:59:47;;;;;;;;;;;;;;;;;;5024659;28;1269;-61
2021/04/27 09:02:12;;;;;;;;;;;;;;;;;;5025094;28;1332;-62
2021/04/27 09:04:40;;;;;;;;;;;;;;;;;;5026295;28;1306;-60
2021/04/27 09:07:11;;;;;;;;;;;;;;;;;;5026126;28;1406;-61
2021/04/27 09:09:42;;;;;;;;;;;;;;;;;;5028795;28;1566;-61
2021/04/27 09:12:08;;;;;;;;;;;;;;;;;;5026770;28;1312;-60
2021/04/27 09:14:35;;;;;;;;;;;;;;;;;;5024768;28;1371;-59
2021/04/27 09:17:02;;;;;;;;;;;;;;;;;;5024806;28;1986;-61
2021/04/27 09:19:30;;;;;;;;;;;;;;;;;;5025910;28;1246;-61
2021/04/27 09:22:03;;;;;;;;;;;;;;;;;;5025934;28;1338;-60
2021/04/27 09:24:32;;;;;;;;;;;;;;;;;;5018255;28;1610;-61
2021/04/27 09:26:57;;;;;;;;;;;;;;;;;;5019768;28;1266;-62
2021/04/27 09:29:34;;;;;;;;;;;;;;;;;;5025718;28;1232;-59
2021/04/27 09:31:59;;;;;;;;;;;;;;;;;;5024326;28;863;-59
2021/04/27 09:34:29;;;;;;;;;;;;;;;;;;5024508;28;1520;-62
2021/04/27 09:36:56;;;;;;;;;;;;;;;;;;5050153;28;1959;-60
2021/04/27 09:39:31;;;;;;;;;;;;;;;;;;5025763;28;1299;-59
2021/04/27 09:42:05;;;;;;;;;;;;;;;;;;5024120;28;1309;-60
2021/04/27 09:44:33;;;;;;;;;;;;;;;;;;5027127;28;1205;-60
2021/04/27 09:47:18;;;;;;;;;;;;;;;;;;5026068;28;1235;-64
2021/04/27 09:49:51;;;;;;;;;;;;;;;;;;5024128;28;1064;-68
2021/04/27 09:52:16;;;;;;;;;;;;;;;;;;5026622;28;1275;-59
2021/04/27 09:55:14;;;;;;;;;;;;;;;;;;5025369;28;1776;-60
2021/04/27 09:57:46;;;;;;;;;;;;;;;;;;4989334;28;1979;-59
2021/04/27 10:00:27;;;;;;;;;;;;;;;;;;5026126;28;1269;-65
2021/04/27 10:02:53;;;;;;;;;;;;;;;;;;5025724;28;1286;-59
2021/04/27 10:05:19;;;;;;;;;;;;;;;;;;5025736;28;1198;-66
2021/04/27 10:07:45;;;;;;;;;;;;;;;;;;5026467;28;875;-62
2021/04/27 10:10:11;;;;;;;;;;;;;;;;;;5026009;28;1270;-60
2021/04/27 10:12:37;;;;;;;;;;;;;;;;;;5024620;28;914;-61
2021/04/27 10:15:03;;;;;;;;;;;;;;;;;;5025006;28;1262;-60
2021/04/27 10:17:28;;;;;;;;;;;;;;;;;;5058131;28;1905;-60
2021/04/27 10:19:54;;;;;;;;;;;;;;;;;;5025751;28;1242;-62
2021/04/27 10:22:19;;;;;;;;;;;;;;;;;;5057206;28;1710;-62
2021/04/27 10:24:45;;;;;;;;;;;;;;;;;;5023967;28;1130;-59
2021/04/27 10:27:10;;;;;;;;;;;;;;;;;;5025494;28;1285;-61
2021/04/27 10:29:36;;;;;;;;;;;;;;;;;;5024887;28;1190;-62
2021/04/27 10:32:20;;;;;;;;;;;;;;;;;;5024627;28;1390;-62
2021/04/27 10:35:01;;;;;;;;;;;;;;;;;;5023767;28;1384;-60
2021/04/27 10:37:28;;;;;;;;;;;;;;;;;;5024755;28;1989;-68
2021/04/27 10:39:54;;;;;;;;;;;;;;;;;;5023921;28;1492;-58
2021/04/27 10:42:22;;;;;;;;;;;;;;;;;;5023617;28;1319;-60
2021/04/27 10:45:04;;;;;;;;;;;;;;;;;;5020959;28;1476;-62
2021/04/27 10:47:38;;;;;;;;;;;;;;;;;;5023317;28;1458;-59
2021/04/27 10:50:05;;;;;;;;;;;;;;;;;;5024192;28;1296;-58
2021/04/27 10:52:33;;;;;;;;;;;;;;;;;;5022307;28;1470;-59
2021/04/27 10:55:18;;;;;;;;;;;;;;;;;;5020684;28;1453;-59
2021/04/27 10:57:45;;;;;;;;;;;;;;;;;;5021896;28;1894;-59
2021/04/27 11:00:11;;;;;;;;;;;;;;;;;;5023838;28;1383;-59
2021/04/27 11:02:39;;;;;;;;;;;;;;;;;;5023701;28;1340;-63
2021/04/27 11:05:14;;;;;;;;;;;;;;;;;;5024294;28;1342;-59
2021/04/27 11:07:40;;;;;;;;;;;;;;;;;;5024583;28;1316;-63
2021/04/27 11:10:07;;;;;;;;;;;;;;;;;;5023297;28;1304;-62
2021/04/27 11:12:33;;;;;;;;;;;;;;;;;;5025746;28;1252;-59
2021/04/27 11:15:00;;;;;;;;;;;;;;;;;;5022521;28;1207;-60
2021/04/27 11:17:30;;;;;;;;;;;;;;;;;;5024529;28;1882;-60
2021/04/27 11:19:55;;;;;;;;;;;;;;;;;;5026052;28;1099;-61
2021/04/27 11:22:23;;;;;;;;;;;;;;;;;;5024293;28;1532;-63
2021/04/27 11:24:48;;;;;;;;;;;;;;;;;;5025069;28;1186;-65
2021/04/27 11:27:25;;;;;;;;;;;;;;;;;;5024055;28;1498;-66
2021/04/27 11:29:54;;;;;;;;;;;;;;;;;;5023518;28;839;-58
2021/04/27 11:32:20;;;;;;;;;;;;;;;;;;5024310;28;743;-58
2021/04/27 11:34:48;;;;;;;;;;;;;;;;;;5024885;28;828;-58
2021/04/27 11:37:24;;;;;;;;;;;;;;;;;;5024460;28;1898;-58
2021/04/27 11:39:50;;;;;;;;;;;;;;;;;;5028478;28;915;-58
2021/04/27 11:42:23;;;;;;;;;;;;;;;;;;5029676;28;828;-58
2021/04/27 11:44:53;;;;;;;;;;;;;;;;;;5045109;28;1163;-57
2021/04/27 11:47:19;;;;;;;;;;;;;;;;;;5047739;28;819;-57
2021/04/27 11:49:45;;;;;;;;;;;;;;;;;;5049106;28;845;-57
2021/04/27 11:52:10;;;;;;;;;;;;;;;;;;5033553;28;1611;-58
2021/04/27 11:54:36;;;;;;;;;;;;;;;;;;5036430;28;1312;-57
2021/04/27 11:57:02;;;;;;;;;;;;;;;;;;5038074;28;1982;-57
2021/04/27 11:59:27;;;;;;;;;;;;;;;;;;5048879;28;839;-58
2021/04/27 12:02:02;;;;;;;;;;;;;;;;;;5034928;28;992;-56
2021/04/27 12:04:28;;;;;;;;;;;;;;;;;;5028734;28;890;-58
2021/04/27 12:07:03;;;;;;;;;;;;;;;;;;5029047;28;816;-58
2021/04/27 12:09:44;;;;;;;;;;;;;;;;;;5034492;28;1157;-57
2021/04/27 12:12:10;;;;;;;;;;;;;;;;;;5048886;28;865;-61
2021/04/27 12:14:35;;;;;;;;;;;;;;;;;;5042572;28;1403;-59
2021/04/27 12:17:01;;;;;;;;;;;;;;;;;;5028689;28;1894;-60
2021/04/27 12:19:27;;;;;;;;;;;;;;;;;;5028200;28;819;-61
2021/04/27 12:22:04;;;;;;;;;;;;;;;;;;5028193;28;1624;-61
2021/04/27 12:24:32;;;;;;;;;;;;;;;;;;5027877;28;1412;-60
2021/04/27 12:27:11;;;;;;;;;;;;;;;;;;5038282;28;1158;-61
2021/04/27 12:29:37;;;;;;;;;;;;;;;;;;5048554;28;933;-58
2021/04/27 12:32:05;;;;;;;;;;;;;;;;;;5049495;28;1029;-62
2021/04/27 12:34:30;;;;;;;;;;;;;;;;;;5048909;28;874;-62
2021/04/27 12:36:56;;;;;;;;;;;;;;;;;;5049070;28;863;-58
2021/04/27 12:39:27;;;;;;;;;;;;;;;;;;5048540;28;1989;-63
2021/04/27 12:41:54;;;;;;;;;;;;;;;;;;5048721;28;906;-59
2021/04/27 12:44:39;;;;;;;;;;;;;;;;;;5041822;28;1509;-63
2021/04/27 12:47:14;;;;;;;;;;;;;;;;;;5029160;28;866;-61
2021/04/27 12:49:39;;;;;;;;;;;;;;;;;;5027558;28;819;-63
2021/04/27 12:52:07;;;;;;;;;;;;;;;;;;5028737;28;807;-64
2021/04/27 12:54:33;;;;;;;;;;;;;;;;;;5029292;28;858;-59
2021/04/27 12:57:06;;;;;;;;;;;;;;;;;;5028211;28;1917;-56
2021/04/27 12:59:32;;;;;;;;;;;;;;;;;;5029461;28;807;-59
2021/04/27 13:01:59;;;;;;;;;;;;;;;;;;5044609;28;1285;-57
2021/04/27 13:04:24;;;;;;;;;;;;;;;;;;5047871;28;812;-57
2021/04/27 13:06:49;;;;;;;;;;;;;;;;;;5047756;28;827;-57
2021/04/27 13:09:16;;;;;;;;;;;;;;;;;;5047419;28;807;-57
2021/04/27 13:11:54;;;;;;;;;;;;;;;;;;5048132;28;894;-57
2021/04/27 13:14:21;;;;;;;;;;;;;;;;;;5035699;28;1196;-61
2021/04/27 13:16:46;;;;;;;;;;;;;;;;;;5027839;28;854;-59
2021/04/27 13:19:12;;;;;;;;;;;;;;;;;;5025384;28;2570;-57
2021/04/27 13:22:03;;;;;;;;;;;;;;;;;;5018781;28;827;-59
2021/04/27 13:24:35;;;;;;;;;;;;;;;;;;5059537;28;1199;-56
2021/04/27 13:27:00;;;;;;;;;;;;;;;;;;5028068;28;887;-57
2021/04/27 13:29:26;;;;;;;;;;;;;;;;;;5027895;28;815;-57
2021/04/27 13:32:09;;;;;;;;;;;;;;;;;;5027615;28;639;-56
2021/04/27 13:34:34;;;;;;;;;;;;;;;;;;5027784;28;899;-59
2021/04/27 13:37:00;;;;;;;;;;;;;;;;;;5027135;28;1914;-56
2021/04/27 13:39:25;;;;;;;;;;;;;;;;;;5027694;28;918;-56
2021/04/27 13:41:50;;;;;;;;;;;;;;;;;;5025876;28;838;-58
2021/04/27 13:44:16;;;;;;;;;;;;;;;;;;5024815;28;1261;-62
2021/04/27 13:46:41;;;;;;;;;;;;;;;;;;5020877;28;1629;-58
2021/04/27 13:49:07;;;;;;;;;;;;;;;;;;5026351;28;1177;-56
2021/04/27 13:51:32;;;;;;;;;;;;;;;;;;5028475;28;838;-58
2021/04/27 13:53:58;;;;;;;;;;;;;;;;;;5027447;28;847;-58
2021/04/27 13:56:23;;;;;;;;;;;;;;;;;;5027172;28;1266;-57
2021/04/27 13:58:48;;;;;;;;;;;;;;;;;;5027230;28;1987;-57
2021/04/27 14:01:14;;;;;;;;;;;;;;;;;;5026152;28;2551;-59
2021/04/27 14:03:39;;;;;;;;;;;;;;;;;;5018500;28;882;-60
2021/04/27 14:06:04;;;;;;;;;;;;;;;;;;5027992;28;850;-58
2021/04/27 14:08:30;;;;;;;;;;;;;;;;;;5027605;28;898;-60
2021/04/27 14:10:55;;;;;;;;;;;;;;;;;;5027244;28;910;-63
2021/04/27 14:13:21;;;;;;;;;;;;;;;;;;5026066;28;1419;-62
2021/04/27 14:15:49;;;;;;;;;;;;;;;;;;5026588;28;862;-61
2021/04/27 14:18:14;;;;;;;;;;;;;;;;;;5026852;28;1898;-61
2021/04/27 14:20:40;;;;;;;;;;;;;;;;;;5026579;28;902;-60
2021/04/27 14:23:07;;;;;;;;;;;;;;;;;;5027204;28;930;-59
2021/04/27 14:25:33;;;;;;;;;;;;;;;;;;5027677;28;906;-60
2021/04/27 14:27:58;;;;;;;;;;;;;;;;;;5026599;28;941;-62
2021/04/27 14:30:24;;;;;;;;;;;;;;;;;;5026512;28;835;-62
2021/04/27 14:32:51;;;;;;;;;;;;;;;;;;5024666;28;1570;-61
2021/04/27 14:35:18;;;;;;;;;;;;;;;;;;5009458;28;839;-63
2021/04/27 14:37:44;;;;;;;;;;;;;;;;;;5010523;28;1875;-62
2021/04/27 14:40:11;;;;;;;;;;;;;;;;;;5057974;28;1333;-61
2021/04/27 14:42:37;;;;;;;;;;;;;;;;;;5026243;28;1037;-58
2021/04/27 14:45:03;;;;;;;;;;;;;;;;;;5026196;28;1380;-56
2021/04/27 14:47:28;;;;;;;;;;;;;;;;;;5026088;28;1176;-62
2021/04/27 14:49:54;;;;;;;;;;;;;;;;;;5026130;28;1045;-57
2021/04/27 14:52:19;;;;;;;;;;;;;;;;;;5026248;28;835;-62
2021/04/27 14:54:44;;;;;;;;;;;;;;;;;;5025996;28;879;-61
2021/04/27 14:57:10;;;;;;;;;;;;;;;;;;5025876;28;1977;-61
2021/04/27 14:59:35;;;;;;;;;;;;;;;;;;5026863;28;886;-61
2021/04/27 15:02:01;;;;;;;;;;;;;;;;;;5042840;28;1135;-63
2021/04/27 15:04:29;;;;;;;;;;;;;;;;;;5045664;28;871;-64
2021/04/27 15:06:55;;;;;;;;;;;;;;;;;;5046005;28;855;-61
2021/04/27 15:09:20;;;;;;;;;;;;;;;;;;5042927;28;1178;-62
2021/04/27 15:11:46;;;;;;;;;;;;;;;;;;5017187;28;1677;-57
2021/04/27 15:14:11;;;;;;;;;;;;;;;;;;5025504;28;1261;-56
2021/04/27 15:16:38;;;;;;;;;;;;;;;;;;5013414;28;847;-59
2021/04/27 15:19:04;;;;;;;;;;;;;;;;;;5016932;28;1961;-56
2021/04/27 15:21:29;;;;;;;;;;;;;;;;;;5025644;28;1064;-56
2021/04/27 15:23:54;;;;;;;;;;;;;;;;;;5026022;28;1164;-60
2021/04/27 15:26:20;;;;;;;;;;;;;;;;;;5026006;28;806;-58
2021/04/27 15:28:45;;;;;;;;;;;;;;;;;;5024787;28;820;-60
2021/04/27 15:31:12;;;;;;;;;;;;;;;;;;5025812;28;886;-58
2021/04/27 15:33:37;;;;;;;;;;;;;;;;;;5026177;28;881;-59
2021/04/27 15:36:02;;;;;;;;;;;;;;;;;;5026779;28;851;-59
2021/04/27 15:38:30;;;;;;;;;;;;;;;;;;5025728;28;1894;-57
2021/04/27 15:40:55;;;;;;;;;;;;;;;;;;5025826;28;1182;-56
2021/04/27 15:43:21;;;;;;;;;;;;;;;;;;5025452;28;1458;-57
2021/04/27 15:45:46;;;;;;;;;;;;;;;;;;5025514;28;1187;-57
2021/04/27 15:48:12;;;;;;;;;;;;;;;;;;5021355;28;1299;-60
2021/04/27 15:50:38;;;;;;;;;;;;;;;;;;5017150;28;1136;-61
2021/04/27 15:53:04;;;;;;;;;;;;;;;;;;5026278;28;1089;-58
2021/04/27 15:55:30;;;;;;;;;;;;;;;;;;5024968;28;1290;-62
2021/04/27 15:57:56;;;;;;;;;;;;;;;;;;5021577;28;1969;-56
2021/04/27 16:00:22;;;;;;;;;;;;;;;;;;5024982;28;1199;-57
2021/04/27 16:02:48;;;;;;;;;;;;;;;;;;5024480;28;1083;-60
2021/04/27 16:05:13;;;;;;;;;;;;;;;;;;5025376;28;1168;-57
2021/04/27 16:07:38;;;;;;;;;;;;;;;;;;5025772;28;803;-61
2021/04/27 16:10:04;;;;;;;;;;;;;;;;;;5025960;28;815;-58
2021/04/27 16:12:30;;;;;;;;;;;;;;;;;;5025213;28;1289;-61
2021/04/27 16:14:55;;;;;;;;;;;;;;;;;;5025238;28;1273;-59
2021/04/27 16:17:20;;;;;;;;;;;;;;;;;;5025012;28;1980;-59
2021/04/27 16:19:46;;;;;;;;;;;;;;;;;;5024863;28;816;-56
2021/04/27 16:22:12;;;;;;;;;;;;;;;;;;5024845;28;800;-61
2021/04/27 16:24:37;;;;;;;;;;;;;;;;;;5026782;28;827;-57
2021/04/27 16:27:03;;;;;;;;;;;;;;;;;;5028137;28;831;-59
2021/04/27 16:29:29;;;;;;;;;;;;;;;;;;5028306;28;832;-57
2021/04/27 16:31:54;;;;;;;;;;;;;;;;;;5028719;28;807;-58
2021/04/27 16:34:20;;;;;;;;;;;;;;;;;;5028715;28;823;-60
2021/04/27 16:36:45;;;;;;;;;;;;;;;;;;5028414;28;1099;-61
2021/04/27 16:39:11;;;;;;;;;;;;;;;;;;5028111;28;1902;-58
2021/04/27 16:41:36;;;;;;;;;;;;;;;;;;5028991;28;1195;-60
2021/04/27 16:44:02;;;;;;;;;;;;;;;;;;5025373;28;1478;-56
2021/04/27 16:46:27;;;;;;;;;;;;;;;;;;5027867;28;1140;-59
2021/04/27 16:48:54;;;;;;;;;;;;;;;;;;5026614;28;1093;-60
2021/04/27 16:51:19;;;;;;;;;;;;;;;;;;5027852;28;1168;-57
2021/04/27 16:53:45;;;;;;;;;;;;;;;;;;5027094;28;1262;-56
2021/04/27 16:56:10;;;;;;;;;;;;;;;;;;5028653;28;1199;-62
2021/04/27 16:58:36;;;;;;;;;;;;;;;;;;5029758;28;1910;-57
2021/04/27 17:01:01;;;;;;;;;;;;;;;;;;5029800;28;1096;-59
2021/04/27 17:03:26;;;;;;;;;;;;;;;;;;5027758;28;1201;-59
2021/04/27 17:05:52;;;;;;;;;;;;;;;;;;5027563;28;1176;-60
2021/04/27 17:08:17;;;;;;;;;;;;;;;;;;5025898;28;1710;-59